Time;durP1;ratioP1;P1;durP2;ratioP2;P2;SDS_P1;SDS_P2;PMS_P1;PMS_P2;Temp;Humidity;BMP_temperature;BMP_pressure;BME280_temperature;BME280_humidity;BME280_pressure;Samples;Min_cycle;Max_cycle;Signal;HPM_P1;HPM_P2
2021/06/19 00:00:34;;;;;;;4.50;3.22;;;;;;;24.28;45.36;99831.97;4379925;32;34634;-86
2021/06/19 00:03:03;;;;;;;5.93;3.30;;;;;;;24.27;45.38;99840.84;4379914;32;34528;-85
2021/06/19 00:05:31;;;;;;;4.18;3.12;;;;;;;24.39;45.19;99840.19;4354879;32;34272;-84
2021/06/19 00:07:59;;;;;;;3.87;3.15;;;;;;;24.35;45.06;99843.97;4366605;32;33972;-85
2021/06/19 00:10:27;;;;;;;5.78;3.20;;;;;;;24.20;45.67;99834.16;4379673;32;33469;-85
2021/06/19 00:12:55;;;;;;;6.30;3.55;;;;;;;24.20;45.37;99840.34;4379618;32;35160;-85
2021/06/19 00:15:24;;;;;;;4.85;3.35;;;;;;;24.22;45.31;99834.97;4367518;32;34422;-85
2021/06/19 00:17:53;;;;;;;4.97;3.28;;;;;;;24.28;45.11;99836.41;4367511;32;33502;-87
2021/06/19 00:20:24;;;;;;;4.55;3.55;;;;;;;24.19;45.71;99841.31;4367465;32;33363;-86
2021/06/19 00:22:53;;;;;;;7.33;3.93;;;;;;;24.14;45.80;99845.16;4379842;32;34566;-85
2021/06/19 00:25:23;;;;;;;4.90;3.42;;;;;;;24.10;46.00;99843.63;4367290;32;34313;-85
2021/06/19 00:27:51;;;;;;;4.75;3.33;;;;;;;24.03;45.86;99844.84;4379695;32;34125;-85
2021/06/19 00:30:19;;;;;;;5.30;3.30;;;;;;;23.99;45.90;99835.31;4392076;32;33286;-85
2021/06/19 00:32:49;;;;;;;5.87;3.95;;;;;;;23.98;45.89;99828.31;4367380;32;33814;-86
2021/06/19 00:35:17;;;;;;;4.62;3.10;;;;;;;23.90;45.86;99820.75;4367332;32;35196;-86
2021/06/19 00:37:47;;;;;;;4.62;3.35;;;;;;;23.83;46.02;99818.50;4379486;32;34190;-86
2021/06/19 00:40:16;;;;;;;5.35;3.40;;;;;;;23.86;46.10;99815.69;4379491;32;34586;-86
2021/06/19 00:42:59;;;;;;;5.43;3.78;;;;;;;23.93;45.92;99822.38;4379889;32;33796;-85
2021/06/19 00:45:29;;;;;;;5.50;3.15;;;;;;;23.97;45.74;99826.56;4379823;32;35789;-86
2021/06/19 00:47:57;;;;;;;3.95;3.30;;;;;;;23.98;45.77;99823.00;4379662;32;34011;-87
2021/06/19 00:50:26;;;;;;;5.10;3.42;;;;;;;23.97;45.83;99810.63;4366807;32;32613;-86
2021/06/19 00:52:55;;;;;;;3.75;3.33;;;;;;;23.91;46.01;99817.16;4379321;32;33837;-87
2021/06/19 00:55:23;;;;;;;3.92;2.95;;;;;;;23.83;46.10;99813.19;4367246;32;34602;-86
2021/06/19 00:57:51;;;;;;;6.32;3.33;;;;;;;23.79;46.18;99816.94;4379459;32;34492;-86
2021/06/19 01:00:19;;;;;;;4.10;3.40;;;;;;;23.70;46.50;99814.78;4379376;32;33904;-86
2021/06/19 01:02:48;;;;;;;5.70;3.55;;;;;;;23.71;46.60;99820.00;4367465;32;33921;-86
2021/06/19 01:05:16;;;;;;;5.47;3.22;;;;;;;23.71;46.62;99813.84;4392559;32;34535;-86
2021/06/19 01:07:43;;;;;;;4.95;3.28;;;;;;;23.58;46.86;99817.16;4367351;32;34954;-85
2021/06/19 01:10:11;;;;;;;8.07;4.15;;;;;;;23.53;47.06;99818.34;4392851;32;33358;-86
2021/06/19 01:12:41;;;;;;;6.05;3.45;;;;;;;23.55;47.08;99814.69;4367038;32;34540;-86
2021/06/19 01:15:10;;;;;;;4.90;3.28;;;;;;;23.58;47.34;99810.13;4379312;32;36226;-86
2021/06/19 01:17:38;;;;;;;4.22;3.42;;;;;;;23.66;47.14;99806.12;4366181;32;33467;-86
2021/06/19 01:20:08;;;;;;;6.55;3.33;;;;;;;23.58;47.44;99804.81;4379092;32;33283;-86
2021/06/19 01:22:44;;;;;;;4.18;3.58;;;;;;;23.50;47.58;99807.88;4354739;32;33195;-86
2021/06/19 01:25:24;;;;;;;4.95;3.33;;;;;;;23.54;47.38;99804.13;4366868;32;34327;-86
2021/06/19 01:27:53;;;;;;;6.07;3.80;;;;;;;23.43;47.41;99807.34;4366650;32;33955;-86
2021/06/19 01:30:23;;;;;;;4.32;3.47;;;;;;;23.39;47.53;99802.28;4366908;32;34692;-86
2021/06/19 01:32:52;;;;;;;5.18;3.65;;;;;;;23.50;47.35;99799.91;4366871;32;35037;-86
2021/06/19 01:35:21;;;;;;;5.60;3.10;;;;;;;23.48;47.42;99807.97;4366605;32;35765;-86
2021/06/19 01:37:51;;;;;;;4.95;3.40;;;;;;;23.49;47.50;99799.06;4378468;32;34859;-86
2021/06/19 01:40:24;;;;;;;5.22;3.45;;;;;;;23.34;47.79;99804.28;4353741;32;32641;-86
2021/06/19 01:42:53;;;;;;;3.67;3.30;;;;;;;23.35;47.80;99801.56;4378901;32;34261;-86
2021/06/19 01:45:23;;;;;;;5.70;3.25;;;;;;;23.42;47.73;99799.44;4378813;32;34563;-86
2021/06/19 01:47:51;;;;;;;4.80;3.50;;;;;;;23.41;47.88;99795.97;4366515;32;33942;-86
2021/06/19 01:50:22;;;;;;;4.85;3.42;;;;;;;23.40;47.95;99804.84;4366666;32;33659;-86
2021/06/19 01:52:50;;;;;;;5.45;3.97;;;;;;;23.37;48.13;99793.53;4378740;32;34389;-86
2021/06/19 01:55:18;;;;;;;4.82;3.78;;;;;;;23.35;48.27;99793.63;4378582;32;35348;-85
2021/06/19 01:57:52;;;;;;;4.90;4.18;;;;;;;23.36;48.36;99795.34;4391236;32;34123;-87
2021/06/19 02:00:25;;;;;;;6.47;3.50;;;;;;;23.51;48.21;99794.50;4378687;32;33629;-86
2021/06/19 02:02:54;;;;;;;4.00;3.60;;;;;;;23.41;48.79;99805.72;4366094;32;33568;-86
2021/06/19 02:05:23;;;;;;;3.95;3.58;;;;;;;23.41;48.86;99808.38;4391853;32;35298;-85
2021/06/19 02:07:59;;;;;;;5.60;4.22;;;;;;;23.34;49.19;99831.66;4378868;32;35506;-86
2021/06/19 02:10:31;;;;;;;5.68;4.20;;;;;;;23.28;49.55;99824.03;4366145;32;33081;-86
2021/06/19 02:13:00;;;;;;;5.57;3.65;;;;;;;23.23;49.66;99822.53;4366064;32;33806;-86
2021/06/19 02:15:28;;;;;;;5.82;3.90;;;;;;;23.21;49.67;99816.47;4366370;32;35468;-88
2021/06/19 02:17:56;;;;;;;4.78;3.83;;;;;;;23.14;49.92;99809.75;4378359;32;33982;-87
2021/06/19 02:20:25;;;;;;;4.25;3.80;;;;;;;23.18;49.72;99820.13;4378506;32;33814;-87
2021/06/19 02:22:53;;;;;;;4.72;4.22;;;;;;;23.11;49.92;99818.72;4366122;32;33436;-86
2021/06/19 02:25:25;;;;;;;4.75;3.87;;;;;;;23.05;50.26;99818.19;4378269;32;34480;-86
2021/06/19 02:27:54;;;;;;;;;;;;;;;23.03;50.53;99820.06;4366171;32;33865;-86
2021/06/19 02:30:26;;;;;;;5.60;3.92;;;;;;;23.06;50.43;99818.09;4366881;32;33968;-86
2021/06/19 02:32:56;;;;;;;6.35;3.75;;;;;;;23.06;50.59;99819.91;4380401;32;35170;-86
2021/06/19 02:35:26;;;;;;;6.50;4.25;;;;;;;22.92;51.02;99823.22;4380543;32;34499;-85
2021/06/19 02:37:55;;;;;;;5.37;3.95;;;;;;;22.80;51.18;99822.06;4368224;32;34141;-84
2021/06/19 02:40:23;;;;;;;7.00;4.97;;;;;;;22.82;51.42;99817.53;4367914;32;34804;-84
2021/06/19 02:42:52;;;;;;;5.78;4.30;;;;;;;22.76;51.53;99822.28;4368043;32;33975;-85
2021/06/19 02:45:20;;;;;;;5.20;4.43;;;;;;;22.75;51.55;99825.84;4368023;32;35052;-85
2021/06/19 02:47:50;;;;;;;4.90;4.40;;;;;;;22.80;51.08;99829.16;4380355;32;35247;-86
2021/06/19 02:50:22;;;;;;;6.85;4.30;;;;;;;22.65;51.52;99832.56;4368124;32;33463;-85
2021/06/19 02:52:50;;;;;;;5.15;4.20;;;;;;;22.77;51.42;99822.19;4368039;32;34406;-85
2021/06/19 02:55:20;;;;;;;7.05;4.07;;;;;;;22.72;51.50;99834.00;4367559;32;35303;-85
2021/06/19 02:57:48;;;;;;;8.57;4.45;;;;;;;22.61;51.86;99823.91;4380345;32;34066;-85
2021/06/19 03:00:17;;;;;;;7.85;4.45;;;;;;;22.67;51.90;99822.75;4380500;32;33806;-86
2021/06/19 03:02:46;;;;;;;5.07;4.05;;;;;;;22.70;51.62;99830.56;4367924;32;34050;-85
2021/06/19 03:05:16;;;;;;;6.85;4.43;;;;;;;22.76;51.62;99824.94;4367694;32;34455;-85
2021/06/19 03:07:44;;;;;;;5.37;3.80;;;;;;;22.74;51.57;99825.03;4380024;32;34339;-86
2021/06/19 03:10:15;;;;;;;5.10;4.40;;;;;;;22.70;51.98;99825.25;4380207;32;34668;-87
2021/06/19 03:12:44;;;;;;;6.32;4.50;;;;;;;22.70;51.93;99834.03;4393608;32;33745;-85
2021/06/19 03:15:12;;;;;;;5.68;4.20;;;;;;;22.59;52.22;99825.72;4367849;32;34504;-86
2021/06/19 03:17:40;;;;;;;5.62;4.12;;;;;;;22.68;52.60;99824.44;4367716;32;33959;-85
2021/06/19 03:20:10;;;;;;;5.53;4.20;;;;;;;22.57;52.95;99829.38;4380186;32;34573;-86
2021/06/19 03:22:53;;;;;;;6.45;4.72;;;;;;;22.55;52.52;99828.59;4380545;32;34634;-86
2021/06/19 03:25:23;;;;;;;6.85;4.68;;;;;;;22.66;52.44;99831.63;4380221;32;35151;-86
2021/06/19 03:27:59;;;;;;;7.50;4.47;;;;;;;22.18;54.39;99824.19;4368350;32;33789;-85
2021/06/19 03:30:28;;;;;;;6.93;4.50;;;;;;;22.42;53.91;99822.16;4367840;32;34201;-85
2021/06/19 03:32:56;;;;;;;5.57;4.80;;;;;;;22.68;53.25;99835.03;4380005;32;34160;-86
2021/06/19 03:35:24;;;;;;;9.18;4.97;;;;;;;22.61;53.16;99834.50;4367298;32;34389;-86
2021/06/19 03:37:54;;;;;;;5.25;4.75;;;;;;;22.73;53.03;99830.38;4380089;32;34753;-85
2021/06/19 03:40:22;;;;;;;7.65;4.80;;;;;;;22.74;53.19;99826.81;4380229;32;34040;-85
2021/06/19 03:42:51;;;;;;;9.18;4.78;;;;;;;22.79;53.29;99830.09;4367682;32;34926;-86
2021/06/19 03:45:20;;;;;;;6.28;4.87;;;;;;;22.87;53.02;99835.88;4380010;32;34464;-86
2021/06/19 03:47:48;;;;;;;9.40;4.78;;;;;;;23.01;52.91;99833.37;4367675;32;34394;-86
2021/06/19 03:50:18;;;;;;;5.45;4.50;;;;;;;23.09;52.65;99831.22;4380046;32;33420;-85
2021/06/19 03:52:52;;;;;;;6.70;4.75;;;;;;;23.07;53.32;99837.53;4367805;32;33510;-86
2021/06/19 03:55:20;;;;;;;8.00;4.78;;;;;;;23.01;53.51;99841.34;4379508;32;34348;-86
2021/06/19 03:57:48;;;;;;;6.65;5.18;;;;;;;23.09;53.23;99836.50;4366988;32;33975;-85
2021/06/19 04:00:18;;;;;;;7.68;4.82;;;;;;;23.25;53.14;99833.97;4379961;32;34756;-86
2021/06/19 04:02:47;;;;;;;8.43;5.00;;;;;;;23.23;53.19;99834.00;4379986;32;35046;-85
2021/06/19 04:05:17;;;;;;;8.48;5.53;;;;;;;23.45;52.97;99831.16;4367665;32;33943;-85
2021/06/19 04:07:44;;;;;;;7.18;4.82;;;;;;;23.49;53.20;99838.88;4379794;32;34246;-86
2021/06/19 04:10:14;;;;;;;5.68;4.40;;;;;;;23.64;52.86;99836.34;4392291;32;34653;-86
2021/06/19 04:12:42;;;;;;;6.87;4.53;;;;;;;23.55;53.40;99835.03;4367535;32;33892;-85
2021/06/19 04:15:11;;;;;;;7.10;5.03;;;;;;;23.68;53.21;99835.28;4367613;32;35730;-85
2021/06/19 04:17:40;;;;;;;5.30;4.70;;;;;;;23.70;53.56;99834.22;4367438;32;34756;-85
2021/06/19 04:20:10;;;;;;;7.82;5.00;;;;;;;23.80;53.53;99834.59;4367346;32;33146;-85
2021/06/19 04:22:38;;;;;;;6.18;4.72;;;;;;;23.81;53.73;99836.31;4367492;32;33760;-85
2021/06/19 04:25:07;;;;;;;6.10;5.00;;;;;;;23.91;53.64;99832.22;4367166;32;33818;-85
2021/06/19 04:27:42;;;;;;;7.22;5.00;;;;;;;24.02;53.55;99835.16;4367389;32;34347;-85
2021/06/19 04:30:12;;;;;;;10.25;4.90;;;;;;;24.14;53.01;99838.03;4367615;32;34538;-85
2021/06/19 04:32:41;;;;;;;7.78;5.03;;;;;;;24.11;53.32;99846.16;4379954;32;33899;-85
2021/06/19 04:35:09;;;;;;;6.95;4.68;;;;;;;24.15;53.54;99841.56;4366650;32;35180;-85
2021/06/19 04:37:37;;;;;;;6.87;5.12;;;;;;;24.37;53.22;99836.75;4379517;32;34092;-85
2021/06/19 04:42:43;;;;;;;10.30;5.22;;;;;;;24.47;53.09;99839.75;4380104;32;34116;-86
2021/06/19 04:45:11;;;;;;;6.87;5.10;;;;;;;24.54;53.19;99844.66;4379395;32;34680;-86
2021/06/19 04:47:40;;;;;;;7.45;4.85;;;;;;;24.73;52.83;99844.44;4366722;32;34428;-86
2021/06/19 04:50:09;;;;;;;7.80;5.15;;;;;;;24.72;53.00;99838.28;4392927;32;34035;-86
2021/06/19 04:52:42;;;;;;;6.75;5.35;;;;;;;24.84;52.58;99837.59;4366201;32;33770;-86
2021/06/19 04:55:14;;;;;;;5.95;5.12;;;;;;;24.89;52.55;99846.19;4392573;32;34482;-86
2021/06/19 04:57:44;;;;;;;8.93;5.60;;;;;;;25.06;52.17;99842.53;4367083;32;34449;-86
2021/06/19 05:00:12;;;;;;;6.18;4.87;;;;;;;25.11;52.45;99844.91;4366950;32;32935;-86
2021/06/19 05:02:40;;;;;;;7.25;5.22;;;;;;;25.22;52.11;99842.50;4367185;32;33964;-86
2021/06/19 05:05:08;;;;;;;5.95;4.45;;;;;;;25.47;51.76;99840.97;4378954;32;34368;-86
2021/06/19 05:07:37;;;;;;;8.07;4.87;;;;;;;25.47;51.84;99846.28;4379182;32;34825;-86
2021/06/19 05:10:12;;;;;;;7.60;5.28;;;;;;;25.60;51.95;99842.91;4380180;32;34514;-86
2021/06/19 05:12:43;;;;;;;8.15;5.25;;;;;;;25.77;51.51;99848.87;4367249;32;33764;-85
2021/06/19 05:15:13;;;;;;;5.90;4.43;;;;;;;25.82;50.62;99843.28;4379049;32;34569;-86
2021/06/19 05:17:41;;;;;;;8.45;4.55;;;;;;;25.85;49.17;99854.59;4366784;32;35809;-87
2021/06/19 05:20:09;;;;;;;5.37;4.45;;;;;;;25.95;47.90;99853.09;4367106;32;33135;-87
2021/06/19 05:22:55;;;;;;;5.05;4.32;;;;;;;26.06;47.04;99842.63;4367733;32;34950;-86
2021/06/19 05:25:23;;;;;;;8.00;4.85;;;;;;;26.19;45.92;99848.06;4395685;32;35186;-86
2021/06/19 05:27:51;;;;;;;7.18;4.30;;;;;;;26.46;45.92;99840.94;4379350;32;34010;-86
2021/06/19 05:30:21;;;;;;;5.80;4.22;;;;;;;26.50;45.51;99838.97;4354615;32;32978;-86
2021/06/19 05:32:49;;;;;;;7.03;4.62;;;;;;;26.52;45.49;99843.25;4366465;32;33993;-86
2021/06/19 05:35:17;;;;;;;7.95;3.78;;;;;;;26.72;45.31;99833.94;4397614;32;34674;-89
2021/06/19 05:37:44;;;;;;;6.47;3.83;;;;;;;26.70;44.16;99842.03;4383718;32;34413;-85
2021/06/19 05:40:13;;;;;;;6.85;4.05;;;;;;;26.90;43.21;99838.09;4409399;32;33273;-88
2021/06/19 05:42:41;;;;;;;5.15;3.62;;;;;;;26.92;43.12;99841.50;4396677;32;34932;-87
2021/06/19 05:45:10;;;;;;;7.37;4.10;;;;;;;27.29;42.66;99848.75;4386176;32;34617;-88
2021/06/19 05:47:38;;;;;;;5.62;3.65;;;;;;;27.24;43.40;99850.88;4385595;32;35225;-87
2021/06/19 05:50:07;;;;;;;9.57;3.85;;;;;;;27.31;43.07;99846.00;4396489;32;33564;-86
2021/06/19 05:52:35;;;;;;;7.85;4.15;;;;;;;27.50;42.01;99852.66;4383222;32;33657;-87
2021/06/19 05:55:04;;;;;;;7.47;4.00;;;;;;;27.55;41.31;99854.19;4386750;32;34430;-87
2021/06/19 05:57:32;;;;;;;5.10;3.60;;;;;;;27.46;41.20;99847.63;4381402;32;33299;-87
2021/06/19 06:00:00;;;;;;;8.48;4.10;;;;;;;27.62;41.46;99852.78;4378545;32;34844;-87
2021/06/19 06:02:28;;;;;;;7.90;3.35;;;;;;;27.60;40.91;99857.38;4366173;32;34169;-87
2021/06/19 06:04:56;;;;;;;6.50;3.97;;;;;;;27.62;40.65;99852.78;4367302;32;33890;-87
2021/06/19 06:07:23;;;;;;;6.45;4.10;;;;;;;27.73;40.67;99852.88;4392950;32;34104;-88
2021/06/19 06:09:51;;;;;;;4.68;3.78;;;;;;;27.77;40.02;99855.25;4380375;32;33116;-87
2021/06/19 06:12:19;;;;;;;6.57;3.22;;;;;;;28.03;39.96;99856.09;4380216;32;33677;-88
2021/06/19 06:14:46;;;;;;;5.03;3.67;;;;;;;28.01;39.91;99852.69;4368142;32;35301;-88
2021/06/19 06:17:14;;;;;;;9.38;4.22;;;;;;;28.09;39.83;99855.69;4367974;32;33743;-88
2021/06/19 06:19:43;;;;;;;6.15;3.62;;;;;;;28.18;39.59;99852.34;4380842;32;34716;-88
2021/06/19 06:22:11;;;;;;;9.73;3.90;;;;;;;28.19;39.61;99852.22;4367838;32;34165;-88
2021/06/19 06:24:38;;;;;;;4.78;3.33;;;;;;;28.26;39.03;99841.97;4380887;32;34950;-88
2021/06/19 06:27:07;;;;;;;6.72;3.17;;;;;;;28.50;37.84;99850.03;4383132;32;34321;-87
2021/06/19 06:29:34;;;;;;;8.25;3.10;;;;;;;28.63;37.13;99845.50;4382994;32;32861;-88
2021/06/19 06:32:03;;;;;;;7.45;3.87;;;;;;;28.71;36.91;99846.69;4370790;32;33516;-87
2021/06/19 06:34:31;;;;;;;4.85;3.30;;;;;;;28.65;37.06;99844.44;4383239;32;34780;-89
2021/06/19 06:36:58;;;;;;;5.97;3.58;;;;;;;28.61;37.04;99842.97;4382816;32;32625;-89
2021/06/19 06:39:26;;;;;;;5.80;3.78;;;;;;;28.69;37.14;99845.09;4383391;32;33400;-88
2021/06/19 06:41:55;;;;;;;5.43;3.30;;;;;;;28.84;37.24;99839.44;4383258;32;35033;-88
2021/06/19 06:44:22;;;;;;;6.22;3.92;;;;;;;29.16;36.48;99839.69;4381369;32;34585;-88
2021/06/19 06:46:50;;;;;;;8.80;3.55;;;;;;;29.38;35.85;99838.94;4380398;32;34656;-88
2021/06/19 06:49:18;;;;;;;6.68;3.80;;;;;;;29.18;36.32;99839.56;4380211;32;32177;-88
2021/06/19 06:51:46;;;;;;;6.37;3.97;;;;;;;29.41;36.58;99844.06;4356720;32;34365;-88
2021/06/19 06:54:14;;;;;;;8.02;3.78;;;;;;;29.46;36.52;99841.87;4383015;32;34441;-87
2021/06/19 06:56:42;;;;;;;5.25;3.60;;;;;;;29.67;35.21;99839.38;4370017;32;34827;-87
2021/06/19 06:59:10;;;;;;;4.35;3.80;;;;;;;29.78;35.47;99842.97;4395607;32;34304;-88
2021/06/19 07:01:37;;;;;;;7.97;3.90;;;;;;;29.93;35.57;99841.72;4410224;32;33525;-89
2021/06/19 07:04:05;;;;;;;8.15;3.58;;;;;;;29.78;35.33;99836.72;4398565;32;34743;-88
2021/06/19 07:06:33;;;;;;;7.25;4.15;;;;;;;29.93;35.31;99836.38;4410180;32;35522;-88
2021/06/19 07:09:01;;;;;;;4.55;3.33;;;;;;;29.93;34.75;99841.72;4385672;32;33981;-87
2021/06/19 07:11:32;;;;;;;5.32;3.90;;;;;;;29.84;35.47;99834.41;4397908;32;34706;-87
2021/06/19 07:14:00;;;;;;;6.97;3.92;;;;;;;30.31;35.03;99827.09;4397682;32;34389;-88
2021/06/19 07:16:27;;;;;;;6.40;3.62;;;;;;;30.28;34.59;99825.53;4409422;32;34013;-87
2021/06/19 07:18:57;;;;;;;6.47;3.72;;;;;;;30.49;34.90;99828.31;4385489;32;32869;-88
2021/06/19 07:21:25;;;;;;;8.70;3.60;;;;;;;30.65;34.87;99834.13;4423988;32;34623;-87
2021/06/19 07:23:53;;;;;;;4.20;3.33;;;;;;;30.70;34.14;99837.28;4397672;32;34478;-88
2021/06/19 07:26:22;;;;;;;11.95;3.20;;;;;;;30.88;33.55;99825.00;4397866;32;35222;-87
2021/06/19 07:28:49;;;;;;;9.57;4.00;;;;;;;31.07;33.42;99835.94;4384570;32;34138;-88
2021/06/19 07:31:17;;;;;;;5.97;3.75;;;;;;;31.21;33.77;99832.13;4367478;32;33387;-88
2021/06/19 07:33:45;;;;;;;7.80;3.67;;;;;;;31.36;33.04;99828.97;4367614;32;34695;-87
2021/06/19 07:36:12;;;;;;;5.82;3.58;;;;;;;31.58;33.31;99824.47;4367300;32;33665;-86
2021/06/19 07:38:40;;;;;;;8.70;3.53;;;;;;;31.74;32.93;99824.84;4367607;32;33798;-87
2021/06/19 07:41:08;;;;;;;7.70;3.42;;;;;;;31.77;32.52;99822.75;4380004;32;33854;-86
2021/06/19 07:43:36;;;;;;;4.35;3.70;;;;;;;32.20;32.02;99817.16;4367532;32;34387;-87
2021/06/19 07:46:04;;;;;;;9.57;3.92;;;;;;;32.21;31.88;99818.87;4379336;32;34128;-86
2021/06/19 07:48:32;;;;;;;5.50;3.78;;;;;;;32.19;32.22;99812.75;4382777;32;33301;-86
2021/06/19 07:51:00;;;;;;;6.95;3.92;;;;;;;32.25;31.58;99819.44;4370306;32;33392;-86
2021/06/19 07:53:27;;;;;;;7.03;3.53;;;;;;;32.20;31.67;99809.09;4370115;32;34971;-88
2021/06/19 07:55:55;;;;;;;11.07;3.90;;;;;;;32.37;32.01;99813.81;4370149;32;33547;-91
2021/06/19 07:58:23;;;;;;;6.03;3.75;;;;;;;32.21;31.78;99812.63;4369837;32;33864;-89
2021/06/19 08:00:51;;;;;;;10.57;4.18;;;;;;;32.37;31.38;99813.81;4379782;32;33913;-89
2021/06/19 08:03:19;;;;;;;4.50;4.10;;;;;;;32.20;31.81;99809.09;4401664;32;35305;-89
2021/06/19 08:05:47;;;;;;;16.02;3.75;;;;;;;32.32;32.23;99810.69;4397661;32;33896;-89
2021/06/19 08:08:14;;;;;;;6.05;3.58;;;;;;;32.45;30.97;99813.97;4397104;32;32945;-88
2021/06/19 08:10:42;;;;;;;6.07;3.47;;;;;;;32.30;31.33;99814.50;4409941;32;34314;-89
2021/06/19 08:13:10;;;;;;;4.65;3.75;;;;;;;32.45;30.45;99810.44;4409846;32;35461;-87
2021/06/19 08:15:38;;;;;;;5.82;3.67;;;;;;;32.45;30.11;99811.25;4397145;32;33127;-89
2021/06/19 08:18:06;;;;;;;8.27;4.22;;;;;;;32.64;30.32;99800.56;4384668;32;32846;-92
2021/06/19 08:20:34;;;;;;;7.03;3.45;;;;;;;32.50;30.92;99803.66;4397339;32;34240;-89
2021/06/19 08:23:04;;;;;;;8.13;4.22;;;;;;;32.47;31.13;99803.94;4397317;32;34980;-89
2021/06/19 08:25:32;;;;;;;5.53;3.75;;;;;;;32.39;31.08;99795.69;4409843;32;34070;-89
2021/06/19 08:27:59;;;;;;;10.02;3.62;;;;;;;32.64;30.77;99797.88;4395768;32;34519;-88
2021/06/19 08:30:27;;;;;;;4.82;3.58;;;;;;;32.67;31.48;99800.28;4396183;32;33815;-89
2021/06/19 08:32:55;;;;;;;7.43;3.30;;;;;;;32.75;30.99;99804.97;4396953;32;33868;-88
2021/06/19 08:35:23;;;;;;;6.60;3.35;;;;;;;32.81;30.36;99801.72;4397194;32;34647;-87
2021/06/19 08:37:50;;;;;;;4.82;3.50;;;;;;;32.86;29.83;99807.53;4396933;32;33171;-87
2021/06/19 08:40:18;;;;;;;4.03;3.47;;;;;;;33.01;30.28;99798.03;4397139;32;34157;-88
2021/06/19 08:42:47;;;;;;;4.57;3.10;;;;;;;32.97;29.66;99803.84;4396967;32;33884;-87
2021/06/19 08:45:15;;;;;;;6.53;3.37;;;;;;;33.08;29.15;99801.91;4409639;32;35533;-88
2021/06/19 08:47:49;;;;;;;6.68;3.45;;;;;;;32.95;30.05;99797.78;4397148;32;32969;-88
2021/06/19 08:50:16;;;;;;;5.15;3.12;;;;;;;33.11;29.08;99803.47;4409623;32;34571;-88
2021/06/19 08:52:45;;;;;;;8.10;3.08;;;;;;;33.05;29.46;99798.62;4396865;32;34711;-87
2021/06/19 08:55:14;;;;;;;9.48;3.30;;;;;;;33.19;30.04;99798.19;4396767;32;34295;-87
2021/06/19 08:57:43;;;;;;;5.93;3.70;;;;;;;33.50;29.56;99791.59;4384908;32;32784;-89
2021/06/19 09:00:13;;;;;;;6.50;3.47;;;;;;;33.36;29.64;99797.44;4397552;32;34082;-89
2021/06/19 09:02:43;;;;;;;5.70;3.60;;;;;;;33.54;29.09;99793.06;4397192;32;33305;-89
2021/06/19 09:05:13;;;;;;;8.90;4.55;;;;;;;33.44;29.68;99789.50;4397486;32;34815;-89
2021/06/19 09:07:44;;;;;;;10.88;4.70;;;;;;;33.51;29.31;99800.56;4397419;32;33651;-90
2021/06/19 09:10:35;;;;;;;7.20;3.78;;;;;;;33.47;29.02;99796.44;4397315;32;33408;-90
2021/06/19 09:13:10;;;;;;;7.85;3.67;;;;;;;33.60;28.74;99800.56;4384524;32;33863;-90
2021/06/19 09:15:39;;;;;;;8.63;3.75;;;;;;;33.55;29.02;99792.06;4396938;32;33492;-88
2021/06/19 09:18:10;;;;;;;5.65;3.80;;;;;;;33.75;29.28;99793.72;4396659;32;33050;-89
2021/06/19 09:20:54;;;;;;;7.07;3.60;;;;;;;33.75;29.38;99787.47;4396924;32;34290;-89
2021/06/19 09:23:35;;;;;;;9.05;3.67;;;;;;;33.75;28.46;99796.41;4397626;32;35311;-90
2021/06/19 09:26:12;;;;;;;7.87;3.50;;;;;;;33.75;28.30;99792.84;4384103;32;34302;-87
2021/06/19 09:29:11;;;;;;;6.82;3.40;;;;;;;34.00;28.15;99784.94;4409190;32;33600;-87
2021/06/19 09:31:42;;;;;;;8.10;3.83;;;;;;;34.05;28.08;99779.97;4384491;32;33389;-86
2021/06/19 09:34:15;;;;;;;9.90;3.40;;;;;;;33.86;29.67;99785.41;4422638;32;34593;-88
2021/06/19 09:36:46;;;;;;;7.50;3.45;;;;;;;34.21;28.15;99783.88;4396242;32;34143;-88
2021/06/19 09:39:19;;;;;;;4.32;3.60;;;;;;;33.92;30.52;99784.81;4398518;32;32811;-90
2021/06/19 09:41:52;;;;;;;6.35;3.72;;;;;;;34.08;27.85;99784.22;4402354;32;34884;-89
2021/06/19 09:44:42;;;;;;;7.75;3.33;;;;;;;34.05;28.65;99782.66;4414601;32;34654;-87
2021/06/19 09:47:11;;;;;;;10.98;3.70;;;;;;;33.94;28.38;99773.91;4401930;32;33599;-89
2021/06/19 09:49:41;;;;;;;4.50;3.25;;;;;;;33.91;29.15;99761.56;4403987;32;33111;-93
2021/06/19 09:52:28;;;;;;;6.50;3.45;;;;;;;34.00;27.75;99773.28;4324430;33;33231;-87
2021/06/19 09:54:59;;;;;;;5.47;3.42;;;;;;;34.01;28.11;99767.75;4335958;33;34171;-87
2021/06/19 09:57:45;;;;;;;4.40;3.28;;;;;;;34.08;28.04;99767.16;4324382;33;33627;-88
2021/06/19 10:00:15;;;;;;;5.82;3.45;;;;;;;34.18;28.12;99776.94;4348443;33;33987;-88
2021/06/19 10:02:45;;;;;;;7.20;3.78;;;;;;;34.00;28.66;99770.59;4312051;33;32436;-88
2021/06/19 10:05:13;;;;;;;6.80;3.70;;;;;;;34.16;28.12;99767.28;4312372;33;34565;-89
2021/06/19 10:07:41;;;;;;;6.65;3.22;;;;;;;34.14;27.69;99756.63;4336948;33;34112;-87
2021/06/19 10:10:12;;;;;;;4.60;3.47;;;;;;;34.25;28.25;99755.56;4336766;33;33448;-88
2021/06/19 10:12:41;;;;;;;6.20;3.97;;;;;;;34.10;27.95;99765.16;4335757;33;33346;-87
2021/06/19 10:15:12;;;;;;;6.85;3.40;;;;;;;34.14;27.78;99762.00;4323692;33;33622;-88
2021/06/19 10:17:43;;;;;;;5.35;3.67;;;;;;;34.16;27.46;99756.50;4312036;33;33492;-87
2021/06/19 10:20:14;;;;;;;3.72;3.40;;;;;;;34.09;27.55;99755.41;4324327;33;33265;-86
2021/06/19 10:22:44;;;;;;;8.07;4.15;;;;;;;34.12;28.57;99755.06;4348516;33;34214;-85
2021/06/19 10:25:21;;;;;;;5.75;3.70;;;;;;;34.21;27.60;99762.28;4311747;33;33563;-86
2021/06/19 10:27:49;;;;;;;5.12;3.60;;;;;;;34.31;27.27;99758.50;4348069;33;33719;-87
2021/06/19 10:30:18;;;;;;;4.57;3.90;;;;;;;34.28;27.31;99757.97;4311607;33;33139;-87
2021/06/19 10:33:27;;;;;;;14.85;3.90;;;;;;;34.28;27.23;99755.28;4333991;33;32811;-87
2021/06/19 10:35:58;;;;;;;4.87;3.55;;;;;;;33.90;27.41;99759.84;4300399;33;35429;-86
2021/06/19 10:38:26;;;;;;;7.60;3.90;;;;;;;33.81;28.02;99760.72;4324229;33;33095;-86
2021/06/19 10:41:00;;;;;;;5.05;3.75;;;;;;;33.96;27.74;99751.16;4312590;33;33234;-86
2021/06/19 10:43:41;;;;;;;5.45;3.65;;;;;;;34.12;27.52;99747.81;4336915;33;33997;-85
2021/06/19 10:46:38;;;;;;;7.28;3.87;;;;;;;34.14;26.88;99750.41;4348120;33;33762;-84
2021/06/19 10:49:18;;;;;;;5.90;3.90;;;;;;;34.25;26.90;99753.72;4324009;33;35342;-86
2021/06/19 10:51:47;;;;;;;9.15;3.92;;;;;;;34.18;27.22;99746.38;4345746;33;33560;-86
2021/06/19 10:54:17;;;;;;;7.43;4.05;;;;;;;34.08;27.21;99749.13;4336449;33;33750;-86
2021/06/19 10:56:51;;;;;;;5.30;3.83;;;;;;;34.28;27.07;99734.50;4336190;33;34997;-84
2021/06/19 10:59:23;;;;;;;8.27;4.00;;;;;;;34.37;27.05;99732.75;4349533;33;33234;-85
2021/06/19 11:01:55;;;;;;;5.78;3.83;;;;;;;34.54;26.92;99726.56;4349384;33;34268;-84
2021/06/19 11:04:42;;;;;;;5.60;3.33;;;;;;;34.60;27.07;99726.78;4312573;33;33536;-86
2021/06/19 11:07:18;;;;;;;5.57;3.58;;;;;;;34.52;26.80;99717.72;4324700;33;35258;-84
2021/06/19 11:09:50;;;;;;;8.82;4.35;;;;;;;34.51;27.44;99722.28;4349420;33;34241;-84
2021/06/19 11:12:27;;;;;;;4.50;3.65;;;;;;;34.24;27.36;99721.47;4335890;33;32780;-86
2021/06/19 11:15:05;;;;;;;6.70;3.80;;;;;;;33.94;26.64;99719.94;4349551;33;33817;-86
2021/06/19 11:17:34;;;;;;;7.78;4.00;;;;;;;33.73;27.34;99720.19;4336356;33;35436;-86
2021/06/19 11:20:21;;;;;;;9.65;3.87;;;;;;;33.46;27.43;99717.41;4336280;33;34022;-86
2021/06/19 11:23:03;;;;;;;9.15;3.60;;;;;;;33.42;28.22;99721.41;4323970;33;33671;-89
2021/06/19 11:25:35;;;;;;;6.50;3.42;;;;;;;33.59;27.42;99709.84;4311087;33;33731;-85
2021/06/19 11:28:18;;;;;;;9.00;3.70;;;;;;;33.42;27.76;99710.63;4349396;33;35100;-86
2021/06/19 11:30:48;;;;;;;5.68;3.75;;;;;;;33.10;28.10;99712.81;4323632;33;33119;-86
2021/06/19 11:33:24;;;;;;;7.43;4.57;;;;;;;33.02;28.66;99712.72;4323761;33;32976;-86
2021/06/19 11:36:04;;;;;;;6.40;3.60;;;;;;;32.98;28.13;99713.94;4335651;33;32403;-86
2021/06/19 11:38:50;;;;;;;5.07;3.78;;;;;;;32.89;27.90;99712.13;4335772;33;34375;-86
2021/06/19 11:41:20;;;;;;;4.47;3.65;;;;;;;32.92;28.01;99701.91;4311844;33;34541;-87
2021/06/19 11:43:49;;;;;;;5.50;3.70;;;;;;;33.23;27.81;99699.91;4335748;33;32780;-87
2021/06/19 11:46:23;;;;;;;7.07;3.80;;;;;;;33.58;27.43;99693.84;4323667;33;33146;-85
2021/06/19 11:49:07;;;;;;;6.18;4.28;;;;;;;33.51;28.82;99681.91;4323468;33;35738;-85
2021/06/19 11:51:53;;;;;;;4.07;3.58;;;;;;;33.66;29.87;99699.34;4325639;33;34280;-86